createdAt,value
2018-09-13T00:00:03.002Z,25.63
2018-09-13T00:02:31.861Z,27.93
2018-09-13T00:05:00.743Z,30.70
2018-09-13T00:07:29.567Z,32.93
2018-09-13T00:09:58.409Z,28.13
2018-09-13T00:12:27.294Z,32.27
2018-09-13T00:14:56.130Z,30.93
2018-09-13T00:17:24.956Z,31.90
2018-09-13T00:19:53.917Z,31.20
2018-09-13T00:22:23.962Z,30.80
2018-09-13T00:24:52.773Z,29.80
2018-09-13T00:27:22.878Z,31.93
2018-09-13T00:29:51.886Z,30.77
2018-09-13T00:32:20.703Z,30.53
2018-09-13T00:34:49.566Z,33.97
2018-09-13T00:37:18.418Z,31.93
2018-09-13T00:39:47.266Z,29.57
2018-09-13T00:42:16.098Z,34.20
2018-09-13T00:44:44.908Z,34.20
2018-09-13T00:47:14.355Z,31.97
2018-09-13T00:49:43.898Z,34.97
2018-09-13T00:52:12.785Z,28.70
2018-09-13T00:54:41.613Z,28.87
2018-09-13T00:57:10.486Z,31.90
2018-09-13T00:59:39.303Z,27.07
2018-09-13T01:02:08.174Z,27.10
2018-09-13T01:04:37.335Z,29.83
2018-09-13T01:07:06.262Z,26.63
2018-09-13T01:09:35.106Z,26.87
2018-09-13T01:12:03.938Z,25.67
2018-09-13T01:14:32.791Z,26.07
2018-09-13T01:17:01.629Z,22.50
2018-09-13T01:19:30.451Z,26.57
2018-09-13T01:21:59.264Z,25.20
2018-09-13T01:24:28.100Z,25.10
2018-09-13T01:26:56.953Z,21.50
2018-09-13T01:29:25.790Z,23.73
2018-09-13T01:31:54.669Z,23.23
2018-09-13T01:34:23.493Z,23.47
2018-09-13T01:36:52.281Z,21.93
2018-09-13T01:39:21.202Z,21.47
2018-09-13T01:41:50.043Z,21.57
2018-09-13T01:44:18.880Z,20.63
2018-09-13T01:46:47.741Z,20.53
2018-09-13T01:49:16.573Z,20.13
2018-09-13T01:51:45.496Z,20.43
2018-09-13T01:54:14.347Z,24.37
2018-09-13T01:56:43.171Z,25.00
2018-09-13T01:59:12.033Z,20.40
2018-09-13T02:01:40.885Z,23.73
2018-09-13T02:04:09.691Z,22.47
2018-09-13T02:06:38.566Z,22.77
2018-09-13T02:09:11.197Z,23.10
2018-09-13T02:11:40.037Z,22.30
2018-09-13T02:14:08.858Z,22.10
2018-09-13T02:16:37.714Z,25.50
2018-09-13T02:19:06.841Z,23.17
2018-09-13T02:21:35.633Z,26.40
2018-09-13T02:24:05.863Z,23.63
2018-09-13T02:26:34.704Z,24.20
2018-09-13T02:29:03.665Z,23.47
2018-09-13T02:31:32.530Z,21.73
2018-09-13T02:34:01.350Z,22.83
2018-09-13T02:36:32.598Z,27.20
2018-09-13T02:39:01.483Z,25.47
2018-09-13T02:41:30.296Z,22.63
2018-09-13T02:43:59.104Z,24.33
2018-09-13T02:46:28.067Z,26.07
2018-09-13T02:48:56.913Z,23.30
2018-09-13T02:51:25.730Z,25.93
2018-09-13T02:53:54.585Z,20.60
2018-09-13T02:56:23.401Z,24.90
2018-09-13T02:58:52.243Z,23.97
2018-09-13T03:01:21.097Z,23.60
2018-09-13T03:03:49.927Z,25.07
2018-09-13T03:06:18.754Z,26.80
2018-09-13T03:08:48.534Z,24.43
2018-09-13T03:11:17.382Z,29.47
2018-09-13T03:13:46.206Z,23.07
2018-09-13T03:16:15.318Z,22.83
2018-09-13T03:18:44.165Z,25.97
2018-09-13T03:21:13.028Z,29.20
2018-09-13T03:23:43.181Z,26.17
2018-09-13T03:26:12.029Z,26.10
2018-09-13T03:28:40.939Z,23.30
2018-09-13T03:31:11.066Z,25.70
2018-09-13T03:33:39.981Z,22.40
2018-09-13T03:36:08.837Z,28.07
2018-09-13T03:38:37.714Z,25.73
2018-09-13T03:41:06.564Z,23.07
2018-09-13T03:43:35.502Z,26.37
2018-09-13T03:46:05.678Z,26.33
2018-09-13T03:48:34.530Z,24.00
2018-09-13T03:51:03.641Z,24.97
2018-09-13T03:53:33.789Z,26.40
2018-09-13T03:56:02.717Z,24.67
2018-09-13T03:58:31.532Z,25.20
2018-09-13T04:01:01.906Z,24.43
2018-09-13T04:03:30.904Z,25.27
2018-09-13T04:05:59.725Z,25.40
2018-09-13T04:08:29.268Z,26.17
2018-09-13T04:10:58.131Z,42.33
2018-09-13T04:13:27.050Z,42.30
2018-09-13T04:15:55.904Z,61.83
2018-09-13T04:18:24.735Z,57.63
2018-09-13T04:20:53.577Z,103.40
2018-09-13T04:23:22.616Z,46.30
2018-09-13T04:25:51.421Z,34.77
2018-09-13T04:28:21.487Z,25.67
2018-09-13T04:30:50.602Z,27.37
2018-09-13T04:33:19.561Z,24.40
2018-09-13T04:35:48.681Z,25.23
2018-09-13T04:38:17.454Z,21.70
2018-09-13T04:40:46.291Z,24.87
2018-09-13T04:43:15.311Z,23.73
2018-09-13T04:45:44.255Z,26.70
2018-09-13T04:48:13.203Z,23.00
2018-09-13T04:50:42.036Z,22.00
2018-09-13T04:53:10.868Z,23.00
2018-09-13T04:55:41.029Z,23.07
2018-09-13T04:58:10.014Z,24.83
2018-09-13T05:00:38.838Z,22.27
2018-09-13T05:03:07.719Z,19.97
2018-09-13T05:05:36.562Z,19.33
2018-09-13T05:08:05.429Z,18.47
2018-09-13T05:10:34.289Z,18.30
2018-09-13T05:13:03.132Z,18.30
2018-09-13T05:15:31.970Z,18.20
2018-09-13T05:18:00.838Z,17.47
2018-09-13T05:20:29.685Z,16.60
2018-09-13T05:22:58.515Z,15.73
2018-09-13T05:25:27.394Z,14.90
2018-09-13T05:27:56.194Z,15.63
2018-09-13T05:30:25.051Z,15.70
2018-09-13T05:32:54.276Z,14.97
2018-09-13T05:35:23.703Z,14.03
2018-09-13T05:37:52.526Z,14.50
2018-09-13T05:40:21.457Z,15.03
2018-09-13T05:42:50.414Z,17.43
2018-09-13T05:45:19.235Z,17.23
2018-09-13T05:47:48.048Z,14.37
2018-09-13T05:50:16.898Z,16.90
2018-09-13T05:52:45.721Z,16.10
2018-09-13T05:55:14.538Z,13.93
2018-09-13T05:57:43.454Z,15.10
2018-09-13T06:00:12.616Z,15.67
2018-09-13T06:02:41.439Z,15.17
2018-09-13T06:05:11.691Z,14.17
2018-09-13T06:07:40.530Z,13.17
2018-09-13T06:10:09.519Z,14.37
2018-09-13T06:12:38.331Z,13.37
2018-09-13T06:15:07.210Z,10.87
2018-09-13T06:17:36.095Z,11.53
2018-09-13T06:20:04.977Z,11.60
2018-09-13T06:22:33.923Z,12.27
2018-09-13T06:25:02.798Z,10.80
2018-09-13T06:27:31.634Z,11.77
2018-09-13T06:30:00.503Z,12.73
2018-09-13T06:32:29.346Z,13.63
2018-09-13T06:34:59.200Z,11.13
2018-09-13T06:37:28.464Z,13.20
2018-09-13T06:39:57.281Z,11.50
2018-09-13T06:42:26.147Z,10.97
2018-09-13T06:44:55.123Z,10.07
2018-09-13T06:47:24.005Z,10.07
2018-09-13T06:49:52.938Z,11.47
2018-09-13T06:52:21.791Z,11.70
2018-09-13T06:54:50.683Z,10.27
2018-09-13T06:57:20.886Z,10.40
2018-09-13T06:59:49.763Z,10.27
2018-09-13T07:02:18.641Z,9.43
2018-09-13T07:04:48.791Z,10.70
2018-09-13T07:07:17.773Z,12.93
2018-09-13T07:09:46.587Z,10.30
2018-09-13T07:12:15.496Z,10.47
2018-09-13T07:14:44.310Z,9.97
2018-09-13T07:17:13.109Z,11.40
2018-09-13T07:19:43.205Z,11.53
2018-09-13T07:22:12.129Z,9.70
2018-09-13T07:24:41.343Z,9.47
2018-09-13T07:27:10.247Z,10.83
2018-09-13T07:29:39.276Z,11.53
2018-09-13T07:32:08.251Z,9.90
2018-09-13T07:34:37.328Z,10.30
2018-09-13T07:37:06.334Z,10.13
2018-09-13T07:39:35.378Z,9.87
2018-09-13T07:42:05.698Z,11.60
2018-09-13T07:44:34.740Z,10.93
2018-09-13T07:47:03.762Z,8.33
2018-09-13T07:49:33.021Z,7.87
2018-09-13T07:52:01.860Z,8.57
2018-09-13T07:54:30.829Z,13.30
2018-09-13T07:56:59.738Z,8.80
2018-09-13T07:59:29.006Z,13.07
2018-09-13T08:01:58.474Z,11.17
2018-09-13T08:04:27.413Z,9.23
2018-09-13T08:06:56.345Z,8.37
2018-09-13T08:09:25.249Z,10.40
2018-09-13T08:11:54.217Z,11.10
2018-09-13T08:14:23.086Z,10.70
2018-09-13T08:16:52.018Z,11.10
2018-09-13T08:19:21.257Z,10.20
2018-09-13T08:21:49.002Z,11.47
2018-09-13T08:24:17.888Z,9.53
2018-09-13T08:26:48.326Z,10.07
2018-09-13T08:29:17.247Z,8.67
2018-09-13T08:31:46.172Z,9.80
2018-09-13T08:34:16.337Z,7.30
2018-09-13T08:36:45.316Z,9.53
2018-09-13T08:39:14.189Z,10.33
2018-09-13T08:41:44.486Z,7.53
2018-09-13T08:44:13.421Z,8.83
2018-09-13T08:46:43.526Z,7.10
2018-09-13T08:49:13.680Z,11.47
2018-09-13T08:51:42.640Z,14.10
2018-09-13T08:54:11.471Z,11.57
2018-09-13T08:56:41.782Z,9.70
2018-09-13T08:59:12.025Z,7.83
2018-09-13T09:01:40.940Z,9.70
2018-09-13T09:04:09.827Z,7.00
2018-09-13T09:06:38.782Z,7.53
2018-09-13T09:09:10.837Z,7.40
2018-09-13T09:11:39.905Z,10.97
2018-09-13T09:14:08.817Z,8.27
2018-09-13T09:16:37.698Z,9.00
2018-09-13T09:19:07.871Z,7.17
2018-09-13T09:21:36.983Z,8.20
2018-09-13T09:24:05.926Z,6.83
2018-09-13T09:26:34.901Z,6.60
2018-09-13T09:29:03.795Z,7.63
2018-09-13T09:31:32.787Z,8.67
2018-09-13T09:34:01.733Z,7.67
2018-09-13T09:36:30.650Z,9.53
2018-09-13T09:38:59.571Z,7.17
2018-09-13T09:41:28.463Z,8.10
2018-09-13T09:43:57.400Z,9.63
2018-09-13T09:46:26.232Z,9.47
2018-09-13T09:48:56.433Z,7.47
2018-09-13T09:51:25.693Z,9.53
2018-09-13T09:53:54.574Z,11.07
2018-09-13T09:56:23.510Z,11.43
2018-09-13T09:58:52.682Z,10.63
2018-09-13T10:01:26.673Z,9.13
2018-09-13T10:03:56.683Z,7.00
2018-09-13T10:06:25.571Z,7.97
2018-09-13T10:08:54.568Z,8.47
2018-09-13T10:11:23.505Z,6.87
2018-09-13T10:13:52.469Z,11.27
2018-09-13T10:16:26.561Z,7.87
2018-09-13T10:19:00.492Z,7.00
2018-09-13T10:21:34.477Z,8.87
2018-09-13T10:24:08.402Z,9.60
2018-09-13T10:26:42.597Z,9.57
2018-09-13T10:29:16.541Z,11.00
2018-09-13T10:31:50.534Z,9.53
2018-09-13T10:34:24.479Z,7.23
2018-09-13T10:36:58.337Z,8.70
2018-09-13T10:39:33.550Z,8.00
2018-09-13T10:42:07.341Z,16.00
2018-09-13T10:44:41.218Z,13.43
2018-09-13T10:47:15.121Z,8.13
2018-09-13T10:49:50.321Z,9.20
2018-09-13T10:52:22.546Z,11.97
2018-09-13T10:54:51.551Z,7.23
2018-09-13T10:57:25.564Z,9.93
2018-09-13T10:59:55.749Z,10.43
2018-09-13T11:02:24.662Z,8.77
2018-09-13T11:04:53.701Z,12.70
2018-09-13T11:07:22.665Z,10.20
2018-09-13T11:09:51.904Z,9.07
2018-09-13T11:12:26.587Z,10.83
2018-09-13T11:15:18.622Z,10.07
2018-09-13T11:17:47.582Z,11.00
2018-09-13T11:20:16.540Z,8.70
2018-09-13T11:22:49.818Z,10.27
2018-09-13T11:25:18.722Z,14.00
2018-09-13T11:27:47.714Z,11.07
2018-09-13T11:30:16.699Z,9.57
2018-09-13T11:32:46.915Z,10.27
2018-09-13T11:35:16.192Z,11.50
2018-09-13T11:37:44.705Z,10.93
2018-09-13T11:40:14.127Z,12.97
2018-09-13T11:42:43.487Z,9.43
2018-09-13T11:45:12.574Z,10.53
2018-09-13T11:47:43.382Z,10.33
2018-09-13T11:50:12.451Z,13.40
2018-09-13T11:52:41.357Z,9.33
2018-09-13T11:55:11.466Z,11.40
2018-09-13T11:57:40.361Z,12.27
2018-09-13T12:00:09.256Z,13.60
2018-09-13T12:02:38.165Z,14.23
2018-09-13T12:05:07.113Z,10.10
2018-09-13T12:07:36.061Z,11.87
2018-09-13T12:10:05.148Z,11.57
2018-09-13T12:12:34.144Z,10.67
2018-09-13T12:15:03.062Z,10.23
2018-09-13T12:17:31.963Z,7.97
2018-09-13T12:20:00.863Z,9.57
2018-09-13T12:22:29.796Z,11.13
2018-09-13T12:25:00.291Z,8.90
2018-09-13T12:27:29.335Z,9.40
2018-09-13T12:29:58.378Z,14.17
2018-09-13T12:32:28.655Z,11.43
2018-09-13T12:34:57.563Z,8.50
2018-09-13T12:37:27.115Z,8.63
2018-09-13T12:39:56.082Z,9.73
2018-09-13T12:42:25.095Z,9.47
2018-09-13T12:44:53.973Z,10.57
2018-09-13T12:47:22.878Z,9.75
2018-09-13T12:49:52.644Z,9.23
2018-09-13T12:52:21.594Z,12.47
2018-09-13T12:54:50.461Z,7.90
2018-09-13T12:57:19.378Z,10.30
2018-09-13T12:59:48.242Z,10.03
2018-09-13T13:02:17.178Z,9.60
2018-09-13T13:04:46.132Z,11.60
2018-09-13T13:07:15.055Z,8.90
2018-09-13T13:09:44.098Z,11.73
2018-09-13T13:12:12.974Z,9.17
2018-09-13T13:14:41.946Z,10.00
2018-09-13T13:17:10.895Z,8.43
2018-09-13T13:19:39.806Z,12.00
2018-09-13T13:22:08.674Z,10.83
2018-09-13T13:24:37.554Z,11.13
2018-09-13T13:27:06.512Z,11.73
2018-09-13T13:29:35.356Z,13.10
2018-09-13T13:32:04.266Z,11.53
2018-09-13T13:34:33.218Z,9.30
2018-09-13T13:37:02.118Z,9.57
2018-09-13T13:39:32.058Z,11.30
2018-09-13T13:42:00.994Z,11.07
2018-09-13T13:44:29.907Z,13.13
2018-09-13T13:47:00.718Z,6.93
2018-09-13T13:49:29.575Z,9.97
2018-09-13T13:51:58.442Z,6.93
2018-09-13T13:54:27.418Z,9.70
2018-09-13T13:56:56.289Z,8.87
2018-09-13T13:59:25.109Z,7.67
2018-09-13T14:01:54.068Z,8.80
2018-09-13T14:04:22.981Z,11.27
2018-09-13T14:06:51.811Z,8.83
2018-09-13T14:09:20.863Z,11.63
2018-09-13T14:11:51.190Z,12.97
2018-09-13T14:14:20.111Z,7.80
2018-09-13T14:16:49.746Z,9.97
2018-09-13T14:19:19.116Z,10.43
2018-09-13T14:21:48.099Z,10.77
2018-09-13T14:24:17.036Z,10.57
2018-09-13T14:26:45.969Z,11.03
2018-09-13T14:29:14.927Z,9.43
2018-09-13T14:31:43.874Z,11.80
2018-09-13T14:34:12.721Z,8.27
2018-09-13T14:36:42.895Z,8.17
2018-09-13T14:39:12.375Z,8.73
2018-09-13T14:41:41.383Z,11.97
2018-09-13T14:44:11.600Z,10.43
2018-09-13T14:46:41.503Z,12.77
2018-09-13T14:49:10.464Z,10.53
2018-09-13T14:51:40.935Z,10.97
2018-09-13T14:54:09.887Z,10.40
2018-09-13T14:56:38.840Z,11.83
2018-09-13T14:59:09.282Z,8.87
2018-09-13T15:01:38.203Z,7.00
2018-09-13T15:04:07.049Z,6.93
2018-09-13T15:06:36.039Z,7.97
2018-09-13T15:09:07.582Z,11.30
2018-09-13T15:11:36.442Z,9.13
2018-09-13T15:14:06.919Z,9.90
2018-09-13T15:16:35.867Z,12.83
2018-09-13T15:19:04.738Z,11.07
2018-09-13T15:21:33.751Z,10.20
2018-09-13T15:24:02.601Z,11.60
2018-09-13T15:26:31.474Z,11.73
2018-09-13T15:29:00.461Z,11.40
2018-09-13T15:31:30.549Z,8.50
2018-09-13T15:33:59.418Z,8.97
2018-09-13T15:36:28.354Z,11.10
2018-09-13T15:38:57.258Z,12.00
2018-09-13T15:41:26.097Z,10.70
2018-09-13T15:43:55.123Z,10.57
2018-09-13T15:46:25.189Z,11.83
2018-09-13T15:48:54.084Z,8.07
2018-09-13T15:51:22.970Z,11.40
2018-09-13T15:53:51.868Z,11.03
2018-09-13T15:56:20.809Z,10.43
2018-09-13T15:58:49.782Z,11.73
2018-09-13T16:01:19.885Z,7.33
2018-09-13T16:03:48.832Z,10.33
2018-09-13T16:06:17.670Z,7.07
2018-09-13T16:08:47.901Z,9.07
2018-09-13T16:11:16.833Z,8.17
2018-09-13T16:13:45.742Z,9.60
2018-09-13T16:16:15.998Z,9.43
2018-09-13T16:18:44.846Z,11.27
2018-09-13T16:21:13.795Z,10.57
2018-09-13T16:23:43.362Z,10.20
2018-09-13T16:26:12.313Z,12.03
2018-09-13T16:28:41.251Z,10.73
2018-09-13T16:31:10.132Z,10.07
2018-09-13T16:33:39.064Z,12.70
2018-09-13T16:36:10.854Z,11.20
2018-09-13T16:38:47.886Z,14.70
2018-09-13T16:41:22.006Z,13.33
2018-09-13T16:43:56.076Z,10.28
2018-09-13T16:46:30.172Z,10.43
2018-09-13T16:48:59.149Z,11.57
2018-09-13T16:51:29.063Z,9.97
2018-09-13T16:53:57.988Z,10.93
2018-09-13T16:56:28.935Z,10.10
2018-09-13T16:58:57.907Z,11.83
2018-09-13T17:01:26.790Z,9.30
2018-09-13T17:03:55.771Z,12.83
2018-09-13T17:06:24.826Z,10.40
2018-09-13T17:08:53.659Z,11.67
2018-09-13T17:11:22.552Z,8.60
2018-09-13T17:13:51.518Z,8.87
2018-09-13T17:16:20.361Z,9.30
2018-09-13T17:18:49.286Z,10.80
2018-09-13T17:21:18.110Z,12.50
2018-09-13T17:23:46.929Z,10.00
2018-09-13T17:26:15.841Z,15.33
2018-09-13T17:28:44.807Z,15.90
2018-09-13T17:31:13.781Z,11.93
2018-09-13T17:33:42.774Z,10.73
2018-09-13T17:36:11.709Z,21.77
2018-09-13T17:38:40.538Z,16.40
2018-09-13T17:41:09.463Z,17.07
2018-09-13T17:43:38.374Z,12.97
2018-09-13T17:46:07.231Z,13.30
2018-09-13T17:48:36.098Z,14.40
2018-09-13T17:51:05.021Z,10.73
2018-09-13T17:53:33.929Z,11.43
2018-09-13T17:56:02.759Z,10.53
2018-09-13T17:58:31.696Z,11.80
2018-09-13T18:01:00.580Z,13.33
2018-09-13T18:03:29.556Z,10.40
2018-09-13T18:05:58.489Z,9.60
2018-09-13T18:08:27.332Z,15.13
2018-09-13T18:10:56.200Z,12.03
2018-09-13T18:13:25.205Z,11.47
2018-09-13T18:15:54.020Z,11.73
2018-09-13T18:18:22.846Z,12.70
2018-09-13T18:20:51.747Z,10.60
2018-09-13T18:23:20.562Z,13.73
2018-09-13T18:25:49.409Z,11.43
2018-09-13T18:28:18.321Z,13.17
2018-09-13T18:30:47.188Z,9.83
2018-09-13T18:33:16.094Z,11.63
2018-09-13T18:35:46.383Z,10.87
2018-09-13T18:38:15.224Z,11.47
2018-09-13T18:40:44.323Z,9.80
2018-09-13T18:43:13.153Z,9.80
2018-09-13T18:45:42.084Z,11.00
2018-09-13T18:48:12.266Z,11.70
2018-09-13T18:50:42.467Z,11.10
2018-09-13T18:53:11.354Z,12.50
2018-09-13T18:55:40.414Z,10.53
2018-09-13T18:58:10.616Z,10.43
2018-09-13T19:00:39.580Z,11.20
2018-09-13T19:03:08.499Z,9.67
2018-09-13T19:05:37.412Z,10.33
2018-09-13T19:08:06.655Z,10.77
2018-09-13T19:10:37.031Z,12.47
2018-09-13T19:13:05.977Z,10.47
2018-09-13T19:15:34.837Z,15.70
2018-09-13T19:18:05.294Z,10.00
2018-09-13T19:20:34.297Z,10.87
2018-09-13T19:23:03.130Z,13.37
2018-09-13T19:25:32.146Z,10.00
2018-09-13T19:28:01.135Z,11.87
2018-09-13T19:30:30.156Z,10.40
2018-09-13T19:32:59.426Z,9.97
2018-09-13T19:35:28.470Z,11.47
2018-09-13T19:37:57.443Z,12.33
2018-09-13T19:40:26.476Z,12.20
2018-09-13T19:43:00.515Z,11.03
2018-09-13T19:45:29.501Z,13.50
2018-09-13T19:47:58.473Z,12.50
2018-09-13T19:50:28.893Z,9.40
2018-09-13T19:52:57.909Z,11.83
2018-09-13T19:55:27.089Z,12.13
2018-09-13T19:57:57.342Z,15.03
2018-09-13T20:00:26.474Z,11.60
2018-09-13T20:02:55.796Z,11.87
2018-09-13T20:05:24.779Z,13.13
2018-09-13T20:07:53.666Z,13.40
2018-09-13T20:10:22.507Z,13.57
2018-09-13T20:12:52.742Z,12.83
2018-09-13T20:15:21.620Z,14.63
2018-09-13T20:17:50.472Z,16.17
2018-09-13T20:20:20.664Z,11.33
2018-09-13T20:22:49.571Z,13.83
2018-09-13T20:25:18.661Z,11.30
2018-09-13T20:27:47.535Z,12.23
2018-09-13T20:30:16.381Z,10.77
2018-09-13T20:32:45.240Z,11.33
2018-09-13T20:35:14.105Z,13.50
2018-09-13T20:37:42.919Z,13.77
2018-09-13T20:40:11.734Z,12.57
2018-09-13T20:42:40.675Z,9.77
2018-09-13T20:45:09.516Z,9.80
2018-09-13T20:47:38.375Z,15.27
2018-09-13T20:50:07.537Z,10.20
2018-09-13T20:52:36.604Z,12.00
2018-09-13T20:55:05.445Z,11.00
2018-09-13T20:57:35.687Z,12.13
2018-09-13T21:00:04.599Z,10.47
2018-09-13T21:02:33.458Z,14.53
2018-09-13T21:05:02.337Z,11.77
2018-09-13T21:07:31.190Z,12.03
2018-09-13T21:10:00.048Z,11.73
2018-09-13T21:12:28.902Z,10.20
2018-09-13T21:14:57.737Z,11.00
2018-09-13T21:17:26.572Z,12.83
2018-09-13T21:19:55.459Z,10.97
2018-09-13T21:22:24.278Z,12.80
2018-09-13T21:24:53.110Z,9.97
2018-09-13T21:27:22.003Z,12.33
2018-09-13T21:29:51.056Z,17.53
2018-09-13T21:32:19.946Z,14.50
2018-09-13T21:34:48.796Z,13.00
2018-09-13T21:37:17.685Z,11.90
2018-09-13T21:39:47.939Z,13.60
2018-09-13T21:42:16.820Z,12.73
2018-09-13T21:44:45.775Z,12.87
2018-09-13T21:47:14.668Z,14.77
2018-09-13T21:49:43.533Z,16.13
2018-09-13T21:52:12.391Z,17.27
2018-09-13T21:54:41.307Z,15.67
2018-09-13T21:57:10.113Z,14.23
2018-09-13T21:59:38.962Z,13.30
2018-09-13T22:02:07.980Z,13.60
2018-09-13T22:04:36.802Z,14.77
2018-09-13T22:07:05.612Z,13.43
2018-09-13T22:09:34.521Z,14.37
2018-09-13T22:12:04.355Z,14.67
2018-09-13T22:14:33.211Z,19.03
2018-09-13T22:17:02.139Z,24.53
2018-09-13T22:19:30.947Z,15.57
2018-09-13T22:21:59.753Z,13.83
2018-09-13T22:24:28.594Z,14.73
2018-09-13T22:26:57.437Z,14.33
2018-09-13T22:29:26.258Z,17.87
2018-09-13T22:31:55.155Z,15.47
2018-09-13T22:34:23.962Z,15.00
2018-09-13T22:36:52.792Z,16.33
2018-09-13T22:39:21.642Z,13.57
2018-09-13T22:41:50.477Z,14.30
2018-09-13T22:44:19.332Z,19.97
2018-09-13T22:46:49.411Z,13.50
2018-09-13T22:49:20.651Z,14.43
2018-09-13T22:51:49.526Z,12.97
2018-09-13T22:54:18.345Z,14.93
2018-09-13T22:56:47.148Z,19.70
2018-09-13T22:59:16.062Z,16.87
2018-09-13T23:01:44.861Z,14.43
2018-09-13T23:04:13.683Z,14.80
2018-09-13T23:06:42.538Z,17.33
2018-09-13T23:09:12.374Z,16.57
2018-09-13T23:11:41.484Z,14.33
2018-09-13T23:14:11.563Z,13.67
2018-09-13T23:16:40.391Z,14.70
2018-09-13T23:19:09.223Z,13.60
2018-09-13T23:21:38.111Z,15.10
2018-09-13T23:24:06.957Z,13.17
2018-09-13T23:26:35.791Z,13.00
2018-09-13T23:29:04.720Z,14.23
2018-09-13T23:31:33.526Z,14.53
2018-09-13T23:34:02.351Z,13.90
2018-09-13T23:36:32.682Z,14.97
2018-09-13T23:39:01.577Z,14.60
2018-09-13T23:41:30.418Z,13.17
2018-09-13T23:43:59.458Z,13.50
2018-09-13T23:46:28.347Z,15.20
2018-09-13T23:48:57.185Z,13.03
2018-09-13T23:51:26.064Z,15.30
2018-09-13T23:53:54.876Z,14.03
2018-09-13T23:56:23.695Z,14.27
2018-09-13T23:58:52.586Z,15.63
